sensor_id;sensor_type;location;lat;lon;timestamp;P1;durP1;ratioP1;P2;durP2;ratioP2
40787;SDS011;26497;52.494;7.546;2022-12-10T00:02:15;98.55;;;29.75;;
40787;SDS011;26497;52.494;7.546;2022-12-10T00:04:42;87.78;;;29.70;;
40787;SDS011;26497;52.494;7.546;2022-12-10T00:07:10;89.15;;;31.13;;
40787;SDS011;26497;52.494;7.546;2022-12-10T00:09:38;86.20;;;29.42;;
40787;SDS011;26497;52.494;7.546;2022-12-10T00:12:05;90.57;;;29.30;;
40787;SDS011;26497;52.494;7.546;2022-12-10T00:14:32;85.20;;;28.25;;
40787;SDS011;26497;52.494;7.546;2022-12-10T00:16:59;76.32;;;27.38;;
40787;SDS011;26497;52.494;7.546;2022-12-10T00:19:26;79.70;;;27.40;;
40787;SDS011;26497;52.494;7.546;2022-12-10T00:21:53;118.75;;;42.97;;
40787;SDS011;26497;52.494;7.546;2022-12-10T00:24:21;90.93;;;30.92;;
40787;SDS011;26497;52.494;7.546;2022-12-10T00:26:48;96.35;;;35.65;;
40787;SDS011;26497;52.494;7.546;2022-12-10T00:29:15;130.07;;;50.78;;
40787;SDS011;26497;52.494;7.546;2022-12-10T00:31:42;96.15;;;37.90;;
40787;SDS011;26497;52.494;7.546;2022-12-10T00:34:09;95.32;;;33.88;;
40787;SDS011;26497;52.494;7.546;2022-12-10T00:36:37;86.13;;;31.33;;
40787;SDS011;26497;52.494;7.546;2022-12-10T00:39:08;86.18;;;30.73;;
40787;SDS011;26497;52.494;7.546;2022-12-10T00:41:37;104.63;;;32.38;;
40787;SDS011;26497;52.494;7.546;2022-12-10T00:44:04;90.40;;;32.13;;
40787;SDS011;26497;52.494;7.546;2022-12-10T00:46:31;100.63;;;32.45;;
40787;SDS011;26497;52.494;7.546;2022-12-10T00:48:59;87.35;;;29.75;;
40787;SDS011;26497;52.494;7.546;2022-12-10T00:51:26;71.25;;;27.85;;
40787;SDS011;26497;52.494;7.546;2022-12-10T00:53:55;88.50;;;29.75;;
40787;SDS011;26497;52.494;7.546;2022-12-10T00:56:24;83.28;;;28.33;;
40787;SDS011;26497;52.494;7.546;2022-12-10T00:58:56;103.72;;;29.50;;
40787;SDS011;26497;52.494;7.546;2022-12-10T01:01:24;92.72;;;30.13;;
40787;SDS011;26497;52.494;7.546;2022-12-10T01:03:56;87.15;;;28.67;;
40787;SDS011;26497;52.494;7.546;2022-12-10T01:06:26;89.38;;;27.52;;
40787;SDS011;26497;52.494;7.546;2022-12-10T01:08:56;101.97;;;34.13;;
40787;SDS011;26497;52.494;7.546;2022-12-10T01:11:28;94.78;;;32.97;;
40787;SDS011;26497;52.494;7.546;2022-12-10T01:14:18;98.63;;;31.52;;
40787;SDS011;26497;52.494;7.546;2022-12-10T01:16:47;96.00;;;30.13;;
40787;SDS011;26497;52.494;7.546;2022-12-10T01:19:15;92.03;;;30.95;;
40787;SDS011;26497;52.494;7.546;2022-12-10T01:21:42;102.22;;;35.78;;
40787;SDS011;26497;52.494;7.546;2022-12-10T01:24:09;100.13;;;30.75;;
40787;SDS011;26497;52.494;7.546;2022-12-10T01:26:36;92.72;;;30.77;;
40787;SDS011;26497;52.494;7.546;2022-12-10T01:29:04;88.63;;;30.02;;
40787;SDS011;26497;52.494;7.546;2022-12-10T01:31:33;92.03;;;30.15;;
40787;SDS011;26497;52.494;7.546;2022-12-10T01:34:02;88.60;;;30.88;;
40787;SDS011;26497;52.494;7.546;2022-12-10T01:36:32;93.28;;;29.42;;
40787;SDS011;26497;52.494;7.546;2022-12-10T01:39:01;94.22;;;28.92;;
40787;SDS011;26497;52.494;7.546;2022-12-10T01:41:31;89.28;;;31.63;;
40787;SDS011;26497;52.494;7.546;2022-12-10T01:44:03;92.30;;;30.60;;
40787;SDS011;26497;52.494;7.546;2022-12-10T01:47:11;81.05;;;26.05;;
40787;SDS011;26497;52.494;7.546;2022-12-10T01:49:39;81.00;;;27.52;;
40787;SDS011;26497;52.494;7.546;2022-12-10T01:52:08;86.18;;;27.45;;
40787;SDS011;26497;52.494;7.546;2022-12-10T01:54:39;85.07;;;28.05;;
40787;SDS011;26497;52.494;7.546;2022-12-10T01:57:09;91.93;;;29.85;;
40787;SDS011;26497;52.494;7.546;2022-12-10T01:59:40;77.78;;;27.25;;
40787;SDS011;26497;52.494;7.546;2022-12-10T02:02:11;83.88;;;27.17;;
40787;SDS011;26497;52.494;7.546;2022-12-10T02:04:53;76.63;;;28.15;;
40787;SDS011;26497;52.494;7.546;2022-12-10T02:07:32;78.75;;;27.33;;
40787;SDS011;26497;52.494;7.546;2022-12-10T02:10:14;86.90;;;28.20;;
40787;SDS011;26497;52.494;7.546;2022-12-10T02:12:52;79.78;;;26.17;;
40787;SDS011;26497;52.494;7.546;2022-12-10T02:15:25;70.03;;;26.33;;
40787;SDS011;26497;52.494;7.546;2022-12-10T02:17:58;74.00;;;25.48;;
40787;SDS011;26497;52.494;7.546;2022-12-10T02:20:32;70.60;;;23.55;;
40787;SDS011;26497;52.494;7.546;2022-12-10T02:23:03;89.43;;;30.17;;
40787;SDS011;26497;52.494;7.546;2022-12-10T02:25:36;79.13;;;30.48;;
40787;SDS011;26497;52.494;7.546;2022-12-10T02:28:11;90.63;;;33.95;;
40787;SDS011;26497;52.494;7.546;2022-12-10T02:30:45;92.50;;;30.63;;
40787;SDS011;26497;52.494;7.546;2022-12-10T02:33:14;86.28;;;31.80;;
40787;SDS011;26497;52.494;7.546;2022-12-10T02:35:45;99.45;;;34.83;;
40787;SDS011;26497;52.494;7.546;2022-12-10T02:38:16;86.13;;;28.98;;
40787;SDS011;26497;52.494;7.546;2022-12-10T02:40:50;99.82;;;32.45;;
40787;SDS011;26497;52.494;7.546;2022-12-10T02:43:23;103.93;;;33.30;;
40787;SDS011;26497;52.494;7.546;2022-12-10T02:45:54;93.88;;;32.58;;
40787;SDS011;26497;52.494;7.546;2022-12-10T02:48:23;96.43;;;32.35;;
40787;SDS011;26497;52.494;7.546;2022-12-10T02:50:51;91.80;;;30.85;;
40787;SDS011;26497;52.494;7.546;2022-12-10T02:53:18;99.22;;;32.20;;
40787;SDS011;26497;52.494;7.546;2022-12-10T02:55:53;83.55;;;32.53;;
40787;SDS011;26497;52.494;7.546;2022-12-10T02:58:35;108.18;;;36.78;;
40787;SDS011;26497;52.494;7.546;2022-12-10T03:01:12;89.47;;;31.63;;
40787;SDS011;26497;52.494;7.546;2022-12-10T03:03:52;92.05;;;34.97;;
40787;SDS011;26497;52.494;7.546;2022-12-10T03:06:27;87.05;;;31.02;;
40787;SDS011;26497;52.494;7.546;2022-12-10T03:09:03;93.65;;;31.27;;
40787;SDS011;26497;52.494;7.546;2022-12-10T03:11:34;94.75;;;31.25;;
40787;SDS011;26497;52.494;7.546;2022-12-10T03:14:03;92.85;;;27.70;;
40787;SDS011;26497;52.494;7.546;2022-12-10T03:16:39;100.40;;;31.20;;
40787;SDS011;26497;52.494;7.546;2022-12-10T03:19:12;92.50;;;31.20;;
40787;SDS011;26497;52.494;7.546;2022-12-10T03:21:44;99.88;;;32.60;;
40787;SDS011;26497;52.494;7.546;2022-12-10T03:24:13;97.53;;;33.63;;
40787;SDS011;26497;52.494;7.546;2022-12-10T03:26:41;97.00;;;32.30;;
40787;SDS011;26497;52.494;7.546;2022-12-10T03:29:13;97.55;;;31.35;;
40787;SDS011;26497;52.494;7.546;2022-12-10T03:31:46;110.68;;;32.83;;
40787;SDS011;26497;52.494;7.546;2022-12-10T03:34:14;100.20;;;32.67;;
40787;SDS011;26497;52.494;7.546;2022-12-10T03:36:42;92.18;;;31.10;;
40787;SDS011;26497;52.494;7.546;2022-12-10T03:39:10;113.68;;;33.38;;
40787;SDS011;26497;52.494;7.546;2022-12-10T03:41:38;97.13;;;32.75;;
40787;SDS011;26497;52.494;7.546;2022-12-10T03:44:05;84.65;;;27.70;;
40787;SDS011;26497;52.494;7.546;2022-12-10T03:46:32;97.50;;;29.40;;
40787;SDS011;26497;52.494;7.546;2022-12-10T03:49:01;100.68;;;34.50;;
40787;SDS011;26497;52.494;7.546;2022-12-10T03:51:29;101.78;;;32.47;;
40787;SDS011;26497;52.494;7.546;2022-12-10T03:53:55;107.07;;;32.10;;
40787;SDS011;26497;52.494;7.546;2022-12-10T03:56:22;97.07;;;31.58;;
40787;SDS011;26497;52.494;7.546;2022-12-10T03:58:49;95.72;;;31.52;;
40787;SDS011;26497;52.494;7.546;2022-12-10T04:01:16;104.80;;;33.88;;
40787;SDS011;26497;52.494;7.546;2022-12-10T04:03:43;103.65;;;33.45;;
40787;SDS011;26497;52.494;7.546;2022-12-10T04:06:12;102.03;;;32.15;;
40787;SDS011;26497;52.494;7.546;2022-12-10T04:08:42;95.28;;;31.98;;
40787;SDS011;26497;52.494;7.546;2022-12-10T04:11:11;89.60;;;30.30;;
40787;SDS011;26497;52.494;7.546;2022-12-10T04:16:46;81.28;;;27.25;;
40787;SDS011;26497;52.494;7.546;2022-12-10T04:19:13;96.10;;;29.27;;
40787;SDS011;26497;52.494;7.546;2022-12-10T04:21:44;100.90;;;28.65;;
40787;SDS011;26497;52.494;7.546;2022-12-10T04:24:30;78.97;;;29.17;;
40787;SDS011;26497;52.494;7.546;2022-12-10T04:27:17;76.82;;;26.85;;
40787;SDS011;26497;52.494;7.546;2022-12-10T04:29:47;96.90;;;31.85;;
40787;SDS011;26497;52.494;7.546;2022-12-10T04:32:15;88.93;;;30.25;;
40787;SDS011;26497;52.494;7.546;2022-12-10T04:34:43;108.45;;;34.40;;
40787;SDS011;26497;52.494;7.546;2022-12-10T04:37:11;101.85;;;32.65;;
40787;SDS011;26497;52.494;7.546;2022-12-10T04:39:39;103.75;;;32.92;;
40787;SDS011;26497;52.494;7.546;2022-12-10T04:42:07;97.80;;;31.67;;
40787;SDS011;26497;52.494;7.546;2022-12-10T04:44:34;101.38;;;31.95;;
40787;SDS011;26497;52.494;7.546;2022-12-10T04:47:02;120.25;;;33.08;;
40787;SDS011;26497;52.494;7.546;2022-12-10T04:49:31;94.55;;;31.45;;
40787;SDS011;26497;52.494;7.546;2022-12-10T04:51:58;106.03;;;34.97;;
40787;SDS011;26497;52.494;7.546;2022-12-10T04:54:27;106.95;;;32.97;;
40787;SDS011;26497;52.494;7.546;2022-12-10T04:56:55;97.82;;;32.00;;
40787;SDS011;26497;52.494;7.546;2022-12-10T04:59:22;103.00;;;30.85;;
40787;SDS011;26497;52.494;7.546;2022-12-10T05:01:49;103.32;;;32.05;;
40787;SDS011;26497;52.494;7.546;2022-12-10T05:04:17;112.07;;;33.35;;
40787;SDS011;26497;52.494;7.546;2022-12-10T05:06:47;106.75;;;32.38;;
40787;SDS011;26497;52.494;7.546;2022-12-10T05:09:15;109.32;;;32.35;;
40787;SDS011;26497;52.494;7.546;2022-12-10T05:11:44;95.95;;;30.10;;
40787;SDS011;26497;52.494;7.546;2022-12-10T05:14:11;112.50;;;31.45;;
40787;SDS011;26497;52.494;7.546;2022-12-10T05:16:40;110.00;;;32.65;;
40787;SDS011;26497;52.494;7.546;2022-12-10T05:19:08;102.57;;;33.45;;
40787;SDS011;26497;52.494;7.546;2022-12-10T05:21:36;97.90;;;31.83;;
40787;SDS011;26497;52.494;7.546;2022-12-10T05:24:20;92.43;;;30.73;;
40787;SDS011;26497;52.494;7.546;2022-12-10T05:26:48;102.65;;;29.90;;
40787;SDS011;26497;52.494;7.546;2022-12-10T05:29:16;102.78;;;32.17;;
40787;SDS011;26497;52.494;7.546;2022-12-10T05:31:44;116.57;;;33.38;;
40787;SDS011;26497;52.494;7.546;2022-12-10T05:34:12;105.65;;;32.70;;
40787;SDS011;26497;52.494;7.546;2022-12-10T05:36:39;113.32;;;34.47;;
40787;SDS011;26497;52.494;7.546;2022-12-10T05:39:06;117.18;;;34.55;;
40787;SDS011;26497;52.494;7.546;2022-12-10T05:41:36;110.00;;;33.65;;
40787;SDS011;26497;52.494;7.546;2022-12-10T05:44:06;103.80;;;32.55;;
40787;SDS011;26497;52.494;7.546;2022-12-10T05:46:34;100.50;;;31.90;;
40787;SDS011;26497;52.494;7.546;2022-12-10T05:49:01;115.63;;;34.05;;
40787;SDS011;26497;52.494;7.546;2022-12-10T05:51:32;98.82;;;33.47;;
40787;SDS011;26497;52.494;7.546;2022-12-10T05:54:02;117.50;;;32.35;;
40787;SDS011;26497;52.494;7.546;2022-12-10T05:56:31;100.82;;;32.85;;
40787;SDS011;26497;52.494;7.546;2022-12-10T05:58:59;112.03;;;32.03;;
40787;SDS011;26497;52.494;7.546;2022-12-10T06:01:30;119.50;;;34.00;;
40787;SDS011;26497;52.494;7.546;2022-12-10T06:04:00;125.78;;;35.72;;
40787;SDS011;26497;52.494;7.546;2022-12-10T06:06:30;105.47;;;34.15;;
40787;SDS011;26497;52.494;7.546;2022-12-10T06:08:59;113.68;;;33.70;;
40787;SDS011;26497;52.494;7.546;2022-12-10T06:11:27;117.90;;;34.53;;
40787;SDS011;26497;52.494;7.546;2022-12-10T06:13:55;107.80;;;35.85;;
40787;SDS011;26497;52.494;7.546;2022-12-10T06:16:23;117.13;;;33.58;;
40787;SDS011;26497;52.494;7.546;2022-12-10T06:18:53;105.43;;;33.38;;
40787;SDS011;26497;52.494;7.546;2022-12-10T06:21:21;102.10;;;30.23;;
40787;SDS011;26497;52.494;7.546;2022-12-10T06:23:48;121.68;;;38.17;;
40787;SDS011;26497;52.494;7.546;2022-12-10T06:26:18;127.22;;;35.80;;
40787;SDS011;26497;52.494;7.546;2022-12-10T06:28:47;109.15;;;32.92;;
40787;SDS011;26497;52.494;7.546;2022-12-10T06:31:15;110.03;;;35.17;;
40787;SDS011;26497;52.494;7.546;2022-12-10T06:33:42;117.65;;;35.63;;
40787;SDS011;26497;52.494;7.546;2022-12-10T06:36:11;126.05;;;36.92;;
40787;SDS011;26497;52.494;7.546;2022-12-10T06:38:41;111.10;;;36.37;;
40787;SDS011;26497;52.494;7.546;2022-12-10T06:41:09;99.10;;;33.08;;
40787;SDS011;26497;52.494;7.546;2022-12-10T06:43:38;114.82;;;33.13;;
40787;SDS011;26497;52.494;7.546;2022-12-10T06:46:05;112.38;;;32.97;;
40787;SDS011;26497;52.494;7.546;2022-12-10T06:48:34;99.05;;;33.13;;
40787;SDS011;26497;52.494;7.546;2022-12-10T06:51:01;108.05;;;34.75;;
40787;SDS011;26497;52.494;7.546;2022-12-10T06:53:31;120.13;;;35.45;;
40787;SDS011;26497;52.494;7.546;2022-12-10T06:55:59;114.30;;;32.72;;
40787;SDS011;26497;52.494;7.546;2022-12-10T06:58:28;105.38;;;35.00;;
40787;SDS011;26497;52.494;7.546;2022-12-10T07:01:01;104.32;;;33.08;;
40787;SDS011;26497;52.494;7.546;2022-12-10T07:03:29;121.40;;;37.17;;
40787;SDS011;26497;52.494;7.546;2022-12-10T07:05:57;119.88;;;35.95;;
40787;SDS011;26497;52.494;7.546;2022-12-10T07:08:24;108.32;;;32.55;;
40787;SDS011;26497;52.494;7.546;2022-12-10T07:10:52;111.20;;;36.05;;
40787;SDS011;26497;52.494;7.546;2022-12-10T07:13:20;111.45;;;34.80;;
40787;SDS011;26497;52.494;7.546;2022-12-10T07:15:47;121.38;;;35.42;;
40787;SDS011;26497;52.494;7.546;2022-12-10T07:18:14;113.30;;;35.22;;
40787;SDS011;26497;52.494;7.546;2022-12-10T07:20:41;122.60;;;38.00;;
40787;SDS011;26497;52.494;7.546;2022-12-10T07:23:08;132.57;;;37.15;;
40787;SDS011;26497;52.494;7.546;2022-12-10T07:25:35;121.10;;;40.17;;
40787;SDS011;26497;52.494;7.546;2022-12-10T07:28:03;110.68;;;37.15;;
40787;SDS011;26497;52.494;7.546;2022-12-10T07:30:30;97.20;;;35.03;;
40787;SDS011;26497;52.494;7.546;2022-12-10T07:32:58;126.68;;;36.75;;
40787;SDS011;26497;52.494;7.546;2022-12-10T07:35:25;108.38;;;35.30;;
40787;SDS011;26497;52.494;7.546;2022-12-10T07:37:52;117.30;;;37.30;;
40787;SDS011;26497;52.494;7.546;2022-12-10T07:40:19;120.40;;;34.67;;
40787;SDS011;26497;52.494;7.546;2022-12-10T07:42:46;110.25;;;37.58;;
40787;SDS011;26497;52.494;7.546;2022-12-10T07:45:14;99.70;;;34.83;;
40787;SDS011;26497;52.494;7.546;2022-12-10T07:47:41;122.97;;;36.10;;
40787;SDS011;26497;52.494;7.546;2022-12-10T07:50:08;107.25;;;36.15;;
40787;SDS011;26497;52.494;7.546;2022-12-10T07:52:35;110.78;;;33.97;;
40787;SDS011;26497;52.494;7.546;2022-12-10T07:55:03;108.35;;;34.35;;
40787;SDS011;26497;52.494;7.546;2022-12-10T07:57:31;94.40;;;31.70;;
40787;SDS011;26497;52.494;7.546;2022-12-10T07:59:58;110.25;;;37.85;;
40787;SDS011;26497;52.494;7.546;2022-12-10T08:02:26;114.38;;;36.92;;
40787;SDS011;26497;52.494;7.546;2022-12-10T08:04:53;128.55;;;38.10;;
40787;SDS011;26497;52.494;7.546;2022-12-10T08:07:20;104.90;;;37.15;;
40787;SDS011;26497;52.494;7.546;2022-12-10T08:09:47;111.25;;;34.08;;
40787;SDS011;26497;52.494;7.546;2022-12-10T08:12:14;112.15;;;38.42;;
40787;SDS011;26497;52.494;7.546;2022-12-10T08:14:41;101.60;;;33.63;;
40787;SDS011;26497;52.494;7.546;2022-12-10T08:17:08;112.50;;;36.35;;
40787;SDS011;26497;52.494;7.546;2022-12-10T08:19:36;99.45;;;32.63;;
40787;SDS011;26497;52.494;7.546;2022-12-10T08:22:03;116.93;;;34.15;;
40787;SDS011;26497;52.494;7.546;2022-12-10T08:24:30;105.57;;;36.15;;
40787;SDS011;26497;52.494;7.546;2022-12-10T08:26:57;111.35;;;33.83;;
40787;SDS011;26497;52.494;7.546;2022-12-10T08:29:24;95.70;;;33.00;;
40787;SDS011;26497;52.494;7.546;2022-12-10T08:31:51;103.28;;;37.78;;
40787;SDS011;26497;52.494;7.546;2022-12-10T08:34:18;112.85;;;36.85;;
40787;SDS011;26497;52.494;7.546;2022-12-10T08:36:47;99.45;;;36.28;;
40787;SDS011;26497;52.494;7.546;2022-12-10T08:39:14;106.68;;;34.92;;
40787;SDS011;26497;52.494;7.546;2022-12-10T08:41:41;116.90;;;37.20;;
40787;SDS011;26497;52.494;7.546;2022-12-10T08:44:09;123.82;;;41.40;;
40787;SDS011;26497;52.494;7.546;2022-12-10T08:46:36;129.52;;;42.70;;
40787;SDS011;26497;52.494;7.546;2022-12-10T08:49:03;134.52;;;42.92;;
40787;SDS011;26497;52.494;7.546;2022-12-10T08:51:31;136.65;;;41.42;;
40787;SDS011;26497;52.494;7.546;2022-12-10T08:54:00;121.35;;;38.90;;
40787;SDS011;26497;52.494;7.546;2022-12-10T08:56:27;114.78;;;39.90;;
40787;SDS011;26497;52.494;7.546;2022-12-10T08:58:54;119.75;;;41.80;;
40787;SDS011;26497;52.494;7.546;2022-12-10T09:01:21;125.97;;;42.30;;
40787;SDS011;26497;52.494;7.546;2022-12-10T09:03:48;126.25;;;43.38;;
40787;SDS011;26497;52.494;7.546;2022-12-10T09:06:16;116.45;;;40.25;;
40787;SDS011;26497;52.494;7.546;2022-12-10T09:08:45;107.35;;;39.03;;
40787;SDS011;26497;52.494;7.546;2022-12-10T09:11:15;132.27;;;41.15;;
40787;SDS011;26497;52.494;7.546;2022-12-10T09:13:44;119.35;;;40.65;;
40787;SDS011;26497;52.494;7.546;2022-12-10T09:16:12;126.32;;;39.53;;
40787;SDS011;26497;52.494;7.546;2022-12-10T09:18:39;124.03;;;41.30;;
40787;SDS011;26497;52.494;7.546;2022-12-10T09:21:06;116.00;;;41.35;;
40787;SDS011;26497;52.494;7.546;2022-12-10T09:23:34;108.63;;;40.13;;
40787;SDS011;26497;52.494;7.546;2022-12-10T09:26:04;117.88;;;43.58;;
40787;SDS011;26497;52.494;7.546;2022-12-10T09:28:34;114.13;;;40.58;;
40787;SDS011;26497;52.494;7.546;2022-12-10T09:31:01;105.38;;;40.70;;
40787;SDS011;26497;52.494;7.546;2022-12-10T09:33:30;125.90;;;43.22;;
40787;SDS011;26497;52.494;7.546;2022-12-10T09:35:58;117.80;;;42.35;;
40787;SDS011;26497;52.494;7.546;2022-12-10T09:38:25;116.88;;;40.78;;
40787;SDS011;26497;52.494;7.546;2022-12-10T09:40:59;82.82;;;35.83;;
40787;SDS011;26497;52.494;7.546;2022-12-10T09:43:36;100.93;;;38.13;;
40787;SDS011;26497;52.494;7.546;2022-12-10T09:46:12;96.60;;;37.10;;
40787;SDS011;26497;52.494;7.546;2022-12-10T09:48:53;95.38;;;40.17;;
40787;SDS011;26497;52.494;7.546;2022-12-10T09:51:29;90.28;;;37.20;;
40787;SDS011;26497;52.494;7.546;2022-12-10T09:54:01;88.35;;;38.28;;
40787;SDS011;26497;52.494;7.546;2022-12-10T09:56:38;87.78;;;34.22;;
40787;SDS011;26497;52.494;7.546;2022-12-10T09:59:15;84.57;;;35.45;;
40787;SDS011;26497;52.494;7.546;2022-12-10T10:01:46;90.35;;;35.17;;
40787;SDS011;26497;52.494;7.546;2022-12-10T10:04:22;80.03;;;33.47;;
40787;SDS011;26497;52.494;7.546;2022-12-10T10:06:49;87.97;;;34.70;;
40787;SDS011;26497;52.494;7.546;2022-12-10T10:09:16;80.43;;;34.42;;
40787;SDS011;26497;52.494;7.546;2022-12-10T10:11:45;80.97;;;33.38;;
40787;SDS011;26497;52.494;7.546;2022-12-10T10:14:14;72.47;;;32.08;;
40787;SDS011;26497;52.494;7.546;2022-12-10T10:16:49;63.40;;;28.90;;
40787;SDS011;26497;52.494;7.546;2022-12-10T10:19:24;68.13;;;27.45;;
40787;SDS011;26497;52.494;7.546;2022-12-10T10:21:54;67.38;;;26.23;;
40787;SDS011;26497;52.494;7.546;2022-12-10T10:24:21;58.92;;;26.20;;
40787;SDS011;26497;52.494;7.546;2022-12-10T10:26:56;42.63;;;22.75;;
40787;SDS011;26497;52.494;7.546;2022-12-10T10:29:29;48.20;;;23.65;;
40787;SDS011;26497;52.494;7.546;2022-12-10T10:32:09;45.03;;;22.52;;
40787;SDS011;26497;52.494;7.546;2022-12-10T10:34:40;44.92;;;23.17;;
40787;SDS011;26497;52.494;7.546;2022-12-10T10:37:13;47.03;;;23.98;;
40787;SDS011;26497;52.494;7.546;2022-12-10T10:39:47;47.08;;;25.73;;
40787;SDS011;26497;52.494;7.546;2022-12-10T10:42:21;41.65;;;23.85;;
40787;SDS011;26497;52.494;7.546;2022-12-10T10:45:03;43.17;;;24.88;;
40787;SDS011;26497;52.494;7.546;2022-12-10T10:47:33;47.30;;;25.98;;
40787;SDS011;26497;52.494;7.546;2022-12-10T10:50:02;47.80;;;25.02;;
40787;SDS011;26497;52.494;7.546;2022-12-10T10:52:35;41.17;;;24.05;;
40787;SDS011;26497;52.494;7.546;2022-12-10T10:55:04;48.03;;;24.65;;
40787;SDS011;26497;52.494;7.546;2022-12-10T10:57:54;41.60;;;24.95;;
40787;SDS011;26497;52.494;7.546;2022-12-10T11:00:22;44.92;;;24.33;;
40787;SDS011;26497;52.494;7.546;2022-12-10T11:02:49;43.05;;;23.58;;
40787;SDS011;26497;52.494;7.546;2022-12-10T11:05:23;51.13;;;26.38;;
40787;SDS011;26497;52.494;7.546;2022-12-10T11:07:56;47.97;;;25.33;;
40787;SDS011;26497;52.494;7.546;2022-12-10T11:10:26;42.55;;;23.55;;
40787;SDS011;26497;52.494;7.546;2022-12-10T11:12:55;52.90;;;25.90;;
40787;SDS011;26497;52.494;7.546;2022-12-10T11:15:32;43.40;;;23.60;;
40787;SDS011;26497;52.494;7.546;2022-12-10T11:18:01;49.60;;;27.33;;
40787;SDS011;26497;52.494;7.546;2022-12-10T11:20:50;68.25;;;31.50;;
40787;SDS011;26497;52.494;7.546;2022-12-10T11:23:29;68.95;;;32.17;;
40787;SDS011;26497;52.494;7.546;2022-12-10T11:26:02;94.47;;;42.05;;
40787;SDS011;26497;52.494;7.546;2022-12-10T11:28:57;55.35;;;28.63;;
40787;SDS011;26497;52.494;7.546;2022-12-10T11:31:55;60.38;;;29.50;;
40787;SDS011;26497;52.494;7.546;2022-12-10T11:34:38;51.70;;;28.45;;
40787;SDS011;26497;52.494;7.546;2022-12-10T11:37:19;57.10;;;30.23;;
40787;SDS011;26497;52.494;7.546;2022-12-10T11:39:58;71.22;;;36.35;;
40787;SDS011;26497;52.494;7.546;2022-12-10T11:42:43;55.03;;;27.98;;
40787;SDS011;26497;52.494;7.546;2022-12-10T11:45:22;49.20;;;25.63;;
40787;SDS011;26497;52.494;7.546;2022-12-10T11:48:00;55.83;;;28.00;;
40787;SDS011;26497;52.494;7.546;2022-12-10T11:50:41;45.70;;;25.95;;
40787;SDS011;26497;52.494;7.546;2022-12-10T11:55:56;51.53;;;25.08;;
40787;SDS011;26497;52.494;7.546;2022-12-10T11:58:47;58.90;;;30.05;;
40787;SDS011;26497;52.494;7.546;2022-12-10T12:01:28;48.95;;;26.88;;
40787;SDS011;26497;52.494;7.546;2022-12-10T12:04:25;55.25;;;28.88;;
40787;SDS011;26497;52.494;7.546;2022-12-10T12:07:18;52.80;;;27.70;;
40787;SDS011;26497;52.494;7.546;2022-12-10T12:13:23;51.30;;;27.77;;
40787;SDS011;26497;52.494;7.546;2022-12-10T12:15:55;52.50;;;28.63;;
40787;SDS011;26497;52.494;7.546;2022-12-10T12:18:38;51.65;;;28.30;;
40787;SDS011;26497;52.494;7.546;2022-12-10T12:21:13;50.25;;;28.08;;
40787;SDS011;26497;52.494;7.546;2022-12-10T12:23:44;50.28;;;26.38;;
40787;SDS011;26497;52.494;7.546;2022-12-10T12:26:19;60.72;;;29.02;;
40787;SDS011;26497;52.494;7.546;2022-12-10T12:28:53;58.13;;;30.40;;
40787;SDS011;26497;52.494;7.546;2022-12-10T12:31:29;55.30;;;28.05;;
40787;SDS011;26497;52.494;7.546;2022-12-10T12:34:01;56.17;;;28.25;;
40787;SDS011;26497;52.494;7.546;2022-12-10T12:36:40;53.95;;;28.25;;
40787;SDS011;26497;52.494;7.546;2022-12-10T12:39:10;53.42;;;28.73;;
40787;SDS011;26497;52.494;7.546;2022-12-10T12:41:48;53.08;;;28.00;;
40787;SDS011;26497;52.494;7.546;2022-12-10T12:44:22;55.50;;;27.02;;
40787;SDS011;26497;52.494;7.546;2022-12-10T12:46:56;52.83;;;27.98;;
40787;SDS011;26497;52.494;7.546;2022-12-10T12:49:30;56.97;;;29.15;;
40787;SDS011;26497;52.494;7.546;2022-12-10T12:52:05;54.20;;;26.65;;
40787;SDS011;26497;52.494;7.546;2022-12-10T12:54:46;54.42;;;28.42;;
40787;SDS011;26497;52.494;7.546;2022-12-10T12:57:15;51.95;;;27.88;;
40787;SDS011;26497;52.494;7.546;2022-12-10T12:59:56;57.63;;;29.33;;
40787;SDS011;26497;52.494;7.546;2022-12-10T13:02:42;55.53;;;26.85;;
40787;SDS011;26497;52.494;7.546;2022-12-10T13:05:23;57.40;;;28.42;;
40787;SDS011;26497;52.494;7.546;2022-12-10T13:10:57;63.75;;;26.52;;
40787;SDS011;26497;52.494;7.546;2022-12-10T13:13:41;62.75;;;26.88;;
40787;SDS011;26497;52.494;7.546;2022-12-10T13:17:02;60.88;;;28.30;;
40787;SDS011;26497;52.494;7.546;2022-12-10T13:19:50;66.13;;;28.85;;
40787;SDS011;26497;52.494;7.546;2022-12-10T13:25:19;63.17;;;27.80;;
40787;SDS011;26497;52.494;7.546;2022-12-10T13:28:17;62.53;;;29.25;;
40787;SDS011;26497;52.494;7.546;2022-12-10T13:31:08;64.85;;;28.17;;
40787;SDS011;26497;52.494;7.546;2022-12-10T13:33:50;66.10;;;29.42;;
40787;SDS011;26497;52.494;7.546;2022-12-10T13:36:20;68.85;;;30.40;;
40787;SDS011;26497;52.494;7.546;2022-12-10T13:45:23;77.40;;;31.85;;
40787;SDS011;26497;52.494;7.546;2022-12-10T13:48:15;81.28;;;33.45;;
40787;SDS011;26497;52.494;7.546;2022-12-10T13:51:03;76.97;;;32.85;;
40787;SDS011;26497;52.494;7.546;2022-12-10T13:54:01;82.13;;;34.78;;
40787;SDS011;26497;52.494;7.546;2022-12-10T13:56:41;94.28;;;35.45;;
40787;SDS011;26497;52.494;7.546;2022-12-10T13:59:25;72.60;;;30.63;;
40787;SDS011;26497;52.494;7.546;2022-12-10T14:02:14;76.70;;;32.17;;
40787;SDS011;26497;52.494;7.546;2022-12-10T14:08:09;78.05;;;31.13;;
40787;SDS011;26497;52.494;7.546;2022-12-10T14:10:43;79.18;;;34.13;;
40787;SDS011;26497;52.494;7.546;2022-12-10T14:13:13;72.80;;;31.65;;
40787;SDS011;26497;52.494;7.546;2022-12-10T14:15:46;82.25;;;34.00;;
40787;SDS011;26497;52.494;7.546;2022-12-10T14:18:19;79.88;;;34.17;;
40787;SDS011;26497;52.494;7.546;2022-12-10T14:20:50;98.63;;;35.72;;
40787;SDS011;26497;52.494;7.546;2022-12-10T14:23:20;87.82;;;34.25;;
40787;SDS011;26497;52.494;7.546;2022-12-10T14:26:03;80.68;;;33.50;;
40787;SDS011;26497;52.494;7.546;2022-12-10T14:28:36;84.18;;;33.83;;
40787;SDS011;26497;52.494;7.546;2022-12-10T14:31:09;92.30;;;36.83;;
40787;SDS011;26497;52.494;7.546;2022-12-10T14:33:42;92.85;;;36.85;;
40787;SDS011;26497;52.494;7.546;2022-12-10T14:36:16;105.90;;;36.22;;
40787;SDS011;26497;52.494;7.546;2022-12-10T14:38:51;98.90;;;37.40;;
40787;SDS011;26497;52.494;7.546;2022-12-10T14:41:19;100.90;;;37.30;;
40787;SDS011;26497;52.494;7.546;2022-12-10T14:43:48;101.03;;;38.33;;
40787;SDS011;26497;52.494;7.546;2022-12-10T14:46:18;96.03;;;35.58;;
40787;SDS011;26497;52.494;7.546;2022-12-10T14:48:49;103.63;;;39.92;;
40787;SDS011;26497;52.494;7.546;2022-12-10T14:51:19;99.00;;;37.13;;
40787;SDS011;26497;52.494;7.546;2022-12-10T14:53:49;107.72;;;42.20;;
40787;SDS011;26497;52.494;7.546;2022-12-10T14:56:19;117.80;;;41.83;;
40787;SDS011;26497;52.494;7.546;2022-12-10T15:02:34;108.72;;;41.05;;
40787;SDS011;26497;52.494;7.546;2022-12-10T15:05:04;107.70;;;40.25;;
40787;SDS011;26497;52.494;7.546;2022-12-10T15:07:39;109.70;;;38.53;;
40787;SDS011;26497;52.494;7.546;2022-12-10T15:10:07;122.03;;;41.40;;
40787;SDS011;26497;52.494;7.546;2022-12-10T15:12:43;126.53;;;43.53;;